createdAt,value
2023-04-11T00:00:15.685Z,11.03
2023-04-11T00:02:42.329Z,10.77
2023-04-11T00:05:09.788Z,10.95
2023-04-11T00:07:36.507Z,11.16
2023-04-11T00:10:03.445Z,11.22
2023-04-11T00:12:30.048Z,11.37
2023-04-11T00:14:56.585Z,10.85
2023-04-11T00:17:23.752Z,11.67
2023-04-11T00:19:53.262Z,10.97
2023-04-11T00:22:19.850Z,11.19
2023-04-11T00:24:46.449Z,11.31
2023-04-11T00:27:13.201Z,11.33
2023-04-11T00:29:40.520Z,11.12
2023-04-11T00:32:07.505Z,10.92
2023-04-11T00:34:34.325Z,11.62
2023-04-11T00:37:01.639Z,11.91
2023-04-11T00:39:30.317Z,11.44
2023-04-11T00:42:07.825Z,11.65
2023-04-11T00:44:36.121Z,12.02
2023-04-11T00:47:05.863Z,11.58
2023-04-11T00:49:32.937Z,12.28
2023-04-11T00:52:00.484Z,11.67
2023-04-11T00:54:30.047Z,11.65
2023-04-11T00:57:01.884Z,11.71
2023-04-11T00:59:30.029Z,11.75
2023-04-11T01:01:58.345Z,11.88
2023-04-11T01:04:26.241Z,12.00
2023-04-11T01:06:59.051Z,11.81
2023-04-11T01:09:27.585Z,11.75
2023-04-11T01:11:54.222Z,11.57
2023-04-11T01:14:21.087Z,11.36
2023-04-11T01:16:48.511Z,12.15
2023-04-11T01:19:18.573Z,12.05
2023-04-11T01:21:46.332Z,11.79
2023-04-11T01:24:13.469Z,11.94
2023-04-11T01:26:40.352Z,11.70
2023-04-11T01:29:06.986Z,11.52
2023-04-11T01:31:33.544Z,11.56
2023-04-11T01:34:01.421Z,11.60
2023-04-11T01:36:29.133Z,11.56
2023-04-11T01:38:56.279Z,11.78
2023-04-11T01:41:24.932Z,11.67
2023-04-11T01:43:51.468Z,11.75
2023-04-11T01:46:18.101Z,11.19
2023-04-11T01:48:45.846Z,11.90
2023-04-11T01:51:12.508Z,12.25
2023-04-11T01:53:39.003Z,12.17
2023-04-11T01:56:06.096Z,11.81
2023-04-11T01:58:32.891Z,11.82
2023-04-11T02:00:59.481Z,11.69
2023-04-11T02:03:26.320Z,11.47
2023-04-11T02:05:53.002Z,11.57
2023-04-11T02:08:19.501Z,11.63
2023-04-11T02:10:46.137Z,11.66
2023-04-11T02:13:12.805Z,11.50
2023-04-11T02:15:39.532Z,11.30
2023-04-11T02:18:07.077Z,11.38
2023-04-11T02:20:33.792Z,11.45
2023-04-11T02:23:04.232Z,11.37
2023-04-11T02:25:31.269Z,11.16
2023-04-11T02:27:57.812Z,11.24
2023-04-11T02:30:24.428Z,11.08
2023-04-11T02:32:51.464Z,11.43
2023-04-11T02:35:19.031Z,11.52
2023-04-11T02:37:45.957Z,11.34
2023-04-11T02:40:12.630Z,11.33
2023-04-11T02:42:42.850Z,11.21
2023-04-11T02:45:09.748Z,10.96
2023-04-11T02:47:36.543Z,11.38
2023-04-11T02:50:03.224Z,11.74
2023-04-11T02:52:29.756Z,11.32
2023-04-11T02:54:56.379Z,11.19
2023-04-11T02:57:22.967Z,11.26
2023-04-11T02:59:49.478Z,11.63
2023-04-11T03:02:16.482Z,11.36
2023-04-11T03:04:43.108Z,11.33
2023-04-11T03:07:09.626Z,11.75
2023-04-11T03:09:36.704Z,11.46
2023-04-11T03:12:03.300Z,11.70
2023-04-11T03:14:29.807Z,11.58
2023-04-11T03:16:56.338Z,11.40
2023-04-11T03:19:23.091Z,11.23
2023-04-11T03:21:49.961Z,11.24
2023-04-11T03:24:17.790Z,10.88
2023-04-11T03:26:44.571Z,11.13
2023-04-11T03:29:11.151Z,11.16
2023-04-11T03:31:38.026Z,11.09
2023-04-11T03:34:04.802Z,11.07
2023-04-11T03:36:32.174Z,11.31
2023-04-11T03:38:58.635Z,10.57
2023-04-11T03:41:25.148Z,11.37
2023-04-11T03:43:51.694Z,11.20
2023-04-11T03:46:18.251Z,10.93
2023-04-11T03:48:47.079Z,10.71
2023-04-11T03:51:13.679Z,11.04
2023-04-11T03:53:40.539Z,11.37
2023-04-11T03:56:07.652Z,10.94
2023-04-11T03:58:34.161Z,11.04
2023-04-11T04:01:02.533Z,10.42
2023-04-11T04:03:29.389Z,10.40
2023-04-11T04:05:56.043Z,10.58
2023-04-11T04:08:22.616Z,10.49
2023-04-11T04:10:49.152Z,10.92
2023-04-11T04:13:15.740Z,11.21
2023-04-11T04:15:42.512Z,10.83
2023-04-11T04:18:09.178Z,10.33
2023-04-11T04:20:35.986Z,10.50
2023-04-11T04:23:04.636Z,10.72
2023-04-11T04:25:31.207Z,10.38
2023-04-11T04:27:58.207Z,10.77
2023-04-11T04:30:28.578Z,10.28
2023-04-11T04:32:58.794Z,10.29
2023-04-11T04:35:26.474Z,10.46
2023-04-11T04:37:54.248Z,10.60
2023-04-11T04:40:21.388Z,10.53
2023-04-11T04:42:58.260Z,10.57
2023-04-11T04:45:26.255Z,10.31
2023-04-11T04:47:52.998Z,10.55
2023-04-11T04:50:20.597Z,10.40
2023-04-11T04:52:49.316Z,10.58
2023-04-11T04:55:16.108Z,10.47
2023-04-11T04:57:42.985Z,11.08
2023-04-11T05:00:11.620Z,10.86
2023-04-11T05:02:43.442Z,10.89
2023-04-11T05:05:11.757Z,10.95
2023-04-11T05:07:38.483Z,10.69
2023-04-11T05:10:05.659Z,10.75
2023-04-11T05:12:32.203Z,9.94
2023-04-11T05:14:58.766Z,10.56
2023-04-11T05:17:26.234Z,10.67
2023-04-11T05:19:52.916Z,10.29
2023-04-11T05:22:19.512Z,10.60
2023-04-11T05:24:46.306Z,10.54
2023-04-11T05:27:13.432Z,10.63
2023-04-11T05:29:40.340Z,10.69
2023-04-11T05:32:06.875Z,10.72
2023-04-11T05:34:34.433Z,10.61
2023-04-11T05:37:01.433Z,10.86
2023-04-11T05:39:27.965Z,10.68
2023-04-11T05:41:54.501Z,10.77
2023-04-11T05:44:21.270Z,11.03
2023-04-11T05:46:47.756Z,10.50
2023-04-11T05:49:14.368Z,10.35
2023-04-11T05:51:40.965Z,9.85
2023-04-11T05:54:07.694Z,9.66
2023-04-11T05:56:35.264Z,9.94
2023-04-11T05:59:01.893Z,9.99
